Time;durP1;ratioP1;P1;durP2;ratioP2;P2;SDS_P1;SDS_P2;PMS_P1;PMS_P2;Temp;Humidity;BMP_temperature;BMP_pressure;BME280_temperature;BME280_humidity;BME280_pressure;Samples;Min_cycle;Max_cycle;Signal;HPM_P1;HPM_P2
2023/04/15 00:00:41;;;;;;;0.70;0.60;;;;;;;5.52;100.00;96315.44;1637594;75;6966155;-70
2023/04/15 00:03:11;;;;;;;0.50;0.50;;;;;;;5.52;100.00;96312.72;1703978;75;678408;-70
2023/04/15 00:05:45;;;;;;;0.50;0.50;;;;;;;5.60;100.00;96315.75;1697068;75;1995869;-71
2023/04/15 00:08:15;;;;;;;0.50;0.50;;;;;;;5.57;100.00;96314.75;1701728;75;845642;-70
2023/04/15 00:10:45;;;;;;;0.80;0.80;;;;;;;5.49;100.00;96310.94;1711744;75;703095;-73
2023/04/15 00:13:16;;;;;;;0.80;0.80;;;;;;;5.51;100.00;96311.22;1703167;75;745916;-70
2023/04/15 00:15:51;;;;;;;1.05;0.90;;;;;;;5.59;100.00;96315.03;1711843;75;689689;-70
2023/04/15 00:18:21;;;;;;;1.05;0.85;;;;;;;5.52;100.00;96310.00;1703184;75;770305;-69
2023/04/15 00:20:54;;;;;;;1.10;0.90;;;;;;;5.43;100.00;96308.16;1709983;75;836211;-69
2023/04/15 00:23:24;;;;;;;2.60;1.80;;;;;;;5.31;100.00;96312.69;1703098;75;750360;-68
2023/04/15 00:25:55;;;;;;;2.40;1.60;;;;;;;5.46;100.00;96309.16;1711752;75;680405;-71
2023/04/15 00:28:26;;;;;;;1.70;1.20;;;;;;;5.31;100.00;96295.66;1703208;75;749443;-69
2023/04/15 00:30:56;;;;;;;2.00;1.50;;;;;;;5.42;100.00;96297.78;1712041;75;685698;-71
2023/04/15 00:33:26;;;;;;;1.95;1.30;;;;;;;5.27;100.00;96305.97;1702900;75;752838;-70
2023/04/15 00:35:59;;;;;;;4.80;2.75;;;;;;;5.15;100.00;96307.03;1686518;75;2776267;-68
2023/04/15 00:38:29;;;;;;;3.15;2.10;;;;;;;5.39;100.00;96299.47;1688853;75;1890496;-67
2023/04/15 00:41:00;;;;;;;2.60;1.60;;;;;;;5.49;100.00;96311.69;1712101;75;689579;-70
2023/04/15 00:43:30;;;;;;;3.20;1.50;;;;;;;5.42;100.00;96301.25;1703229;75;750060;-70
2023/04/15 00:46:03;;;;;;;1.60;1.30;;;;;;;5.50;100.00;96301.56;1634191;75;7219780;-69
2023/04/15 00:48:34;;;;;;;2.55;1.40;;;;;;;5.48;100.00;96309.44;1703014;75;744443;-70
2023/04/15 00:51:08;;;;;;;1.40;1.20;;;;;;;5.39;100.00;96309.56;1712006;75;672449;-71
2023/04/15 00:53:39;;;;;;;1.10;0.80;;;;;;;5.46;100.00;96317.31;1702895;75;752750;-70
2023/04/15 00:56:10;;;;;;;1.00;0.80;;;;;;;5.47;100.00;96299.81;1710604;75;843734;-68
2023/04/15 00:58:40;;;;;;;0.90;0.90;;;;;;;5.49;100.00;96308.25;1703034;75;741529;-70
2023/04/15 01:01:11;;;;;;;0.60;0.60;;;;;;;5.47;100.00;96308.69;1687329;75;2711313;-68
2023/04/15 01:03:41;;;;;;;0.70;0.70;;;;;;;5.49;100.00;96302.81;1687501;75;1976101;-69
2023/04/15 01:06:14;;;;;;;0.75;0.75;;;;;;;5.47;100.00;96297.84;1698593;75;1841937;-70
2023/04/15 01:08:44;;;;;;;0.50;0.50;;;;;;;5.44;100.00;96293.38;1703015;75;747014;-70
2023/04/15 01:11:16;;;;;;;1.70;1.25;;;;;;;5.42;100.00;96303.22;1711689;75;682575;-67
2023/04/15 01:13:47;;;;;;;1.60;1.40;;;;;;;5.44;100.00;96293.38;1702819;75;745237;-69
2023/04/15 01:16:18;;;;;;;3.30;2.90;;;;;;;5.39;100.00;96296.75;1687141;75;2759040;-70
2023/04/15 01:18:48;;;;;;;4.30;3.40;;;;;;;5.38;100.00;96297.22;1702734;75;742841;-69
2023/04/15 01:21:22;;;;;;;3.90;2.80;;;;;;;5.46;100.00;96301.78;1711700;75;680531;-71
2023/04/15 01:23:53;;;;;;;2.80;2.40;;;;;;;5.50;100.00;96294.19;1703357;75;734095;-68
2023/04/15 01:26:26;;;;;;;2.95;2.20;;;;;;;5.46;100.00;96293.66;1711312;75;704473;-68
2023/04/15 01:28:56;;;;;;;2.50;1.95;;;;;;;5.49;100.00;96295.41;1678373;75;2783617;-70
2023/04/15 01:31:26;;;;;;;2.60;2.35;;;;;;;5.41;100.00;96299.75;1711831;75;670140;-68
2023/04/15 01:33:56;;;;;;;2.65;1.50;;;;;;;5.49;100.00;96305.53;1666676;75;3779899;-70
2023/04/15 01:36:27;;;;;;;2.15;1.85;;;;;;;5.52;100.00;96302.59;1711292;75;678810;-70
2023/04/15 01:38:57;;;;;;;1.30;1.20;;;;;;;5.54;100.00;96315.69;1700140;75;911293;-70
2023/04/15 01:41:32;;;;;;;1.30;1.20;;;;;;;5.53;100.00;96309.53;1711753;75;679539;-69
2023/04/15 01:44:02;;;;;;;1.10;1.00;;;;;;;5.57;100.00;96308.56;1702481;75;752037;-70
2023/04/15 01:46:32;;;;;;;0.80;0.80;;;;;;;5.52;100.00;96304.56;1711585;75;679976;-71
2023/04/15 01:49:02;;;;;;;1.20;1.10;;;;;;;5.40;100.00;96300.97;1702559;75;736321;-69
2023/04/15 01:51:33;;;;;;;0.90;0.90;;;;;;;5.48;100.00;96310.22;1711661;75;682095;-69
2023/04/15 01:54:04;;;;;;;0.80;0.80;;;;;;;5.40;100.00;96302.94;1702858;75;743648;-68
2023/04/15 01:56:37;;;;;;;1.20;1.10;;;;;;;5.43;100.00;96304.69;1698001;75;1816028;-72
2023/04/15 01:59:08;;;;;;;1.00;0.90;;;;;;;5.38;100.00;96306.13;1703191;75;753591;-70
2023/04/15 02:01:39;;;;;;;1.50;1.00;;;;;;;5.44;100.00;96304.22;1712059;75;673706;-69
2023/04/15 02:04:15;;;;;;;1.10;1.00;;;;;;;5.39;100.00;96306.84;1703096;75;740370;-69
2023/04/15 02:06:45;;;;;;;0.80;0.80;;;;;;;5.27;100.00;96309.44;1583364;75;10945659;-74
2023/04/15 02:09:16;;;;;;;1.20;1.00;;;;;;;5.43;100.00;96315.56;1711775;75;684803;-73
2023/04/15 02:11:49;;;;;;;0.80;0.80;;;;;;;5.47;100.00;96313.38;1615418;75;8121183;-72
2023/04/15 02:14:19;;;;;;;0.60;0.60;;;;;;;5.48;100.00;96320.31;1696888;75;1889000;-69
2023/04/15 02:16:49;;;;;;;0.60;0.60;;;;;;;5.48;100.00;96321.06;1608340;75;8667725;-70
2023/04/15 02:19:19;;;;;;;0.85;0.70;;;;;;;5.37;100.00;96314.75;1711523;75;678136;-69
2023/04/15 02:21:50;;;;;;;0.50;0.50;;;;;;;5.44;100.00;96315.09;1678771;75;2782299;-71
2023/04/15 02:24:20;;;;;;;1.20;0.70;;;;;;;5.43;100.00;96320.97;1711656;75;673894;-73
2023/04/15 02:26:53;;;;;;;1.30;0.70;;;;;;;5.47;100.00;96314.13;1702764;75;740921;-69
2023/04/15 02:29:24;;;;;;;1.10;1.00;;;;;;;5.36;100.00;96319.41;1711613;75;678788;-72
2023/04/15 02:31:54;;;;;;;1.15;1.05;;;;;;;5.35;100.00;96317.91;1703417;75;671921;-70
2023/04/15 02:34:25;;;;;;;1.30;1.00;;;;;;;5.43;100.00;96316.28;1711015;75;711284;-70
2023/04/15 02:36:56;;;;;;;0.85;0.75;;;;;;;5.41;100.00;96320.69;1690386;75;1853629;-73
2023/04/15 02:39:26;;;;;;;0.80;0.70;;;;;;;5.45;100.00;96315.81;1708090;75;996361;-72
2023/04/15 02:41:59;;;;;;;0.60;0.60;;;;;;;5.42;100.00;96317.53;1690550;75;1788989;-73
2023/04/15 02:44:30;;;;;;;0.50;0.50;;;;;;;5.46;100.00;96320.03;1698722;75;1817122;-73
2023/04/15 02:47:00;;;;;;;0.50;0.50;;;;;;;5.41;100.00;96323.41;1702173;75;801889;-70
2023/04/15 02:49:31;;;;;;;0.80;0.75;;;;;;;5.32;100.00;96316.91;1698701;75;1785286;-70
2023/04/15 02:52:01;;;;;;;0.60;0.60;;;;;;;5.46;100.00;96320.78;1678125;67;2886400;-71
2023/04/15 02:54:32;;;;;;;0.50;0.50;;;;;;;5.38;100.00;96322.41;1711000;75;779927;-73
2023/04/15 02:57:12;;;;;;;0.50;0.50;;;;;;;5.46;100.00;96312.66;1676706;75;2962648;-69
2023/04/15 02:59:42;;;;;;;0.50;0.50;;;;;;;5.41;100.00;96313.31;1711661;75;740510;-70
2023/04/15 03:02:13;;;;;;;0.70;0.60;;;;;;;5.49;100.00;96322.53;1702955;75;749520;-69
2023/04/15 03:04:47;;;;;;;0.50;0.50;;;;;;;5.46;100.00;96320.03;1712169;75;680558;-68
2023/04/15 03:07:17;;;;;;;0.50;0.50;;;;;;;5.45;100.00;96329.41;1703490;75;727823;-69
2023/04/15 03:09:48;;;;;;;0.40;0.40;;;;;;;5.44;100.00;96320.50;1699531;75;1743340;-69
2023/04/15 03:12:21;;;;;;;0.50;0.50;;;;;;;5.43;100.00;96321.72;1643737;75;5756007;-69
2023/04/15 03:14:51;;;;;;;0.50;0.50;;;;;;;5.48;100.00;96321.06;1619477;75;8550642;-70
2023/04/15 03:17:21;;;;;;;0.85;0.50;;;;;;;5.44;100.00;96325.19;1690480;75;1790300;-67
2023/04/15 03:19:51;;;;;;;0.50;0.50;;;;;;;5.48;100.00;96321.06;1688252;75;2730189;-69
2023/04/15 03:22:21;;;;;;;0.60;0.60;;;;;;;5.46;100.00;96325.44;1702315;75;742820;-73
2023/04/15 03:24:52;;;;;;;0.65;0.65;;;;;;;5.38;100.00;96325.09;1711397;75;733936;-70
2023/04/15 03:27:24;;;;;;;0.60;0.60;;;;;;;5.36;100.00;96324.84;1702683;75;743585;-70
2023/04/15 03:29:55;;;;;;;0.50;0.50;;;;;;;5.43;100.00;96326.41;1711403;75;695264;-69
2023/04/15 03:32:26;;;;;;;0.50;0.50;;;;;;;5.42;100.00;96331.09;1702706;75;735503;-70
2023/04/15 03:34:56;;;;;;;0.80;0.60;;;;;;;5.36;100.00;96327.53;1711711;75;701722;-71
2023/04/15 03:37:26;;;;;;;0.50;0.50;;;;;;;5.36;100.00;96324.09;1688152;75;1907266;-70
2023/04/15 03:39:56;;;;;;;0.30;0.30;;;;;;;5.43;100.00;96327.16;1685447;75;2869616;-72
2023/04/15 03:42:29;;;;;;;0.50;0.50;;;;;;;5.44;100.00;96327.91;1701105;75;853667;-69
2023/04/15 03:44:59;;;;;;;0.40;0.40;;;;;;;5.36;100.00;96327.53;1711892;75;687212;-71
2023/04/15 03:47:29;;;;;;;0.80;0.70;;;;;;;5.35;100.00;96323.34;1703007;75;739368;-70
2023/04/15 03:50:00;;;;;;;0.60;0.60;;;;;;;5.39;100.00;96334.00;1711192;75;688055;-70
2023/04/15 03:52:30;;;;;;;0.85;0.85;;;;;;;5.29;100.00;96334.13;1702654;75;742281;-70
2023/04/15 03:55:00;;;;;;;0.60;0.60;;;;;;;5.30;100.00;96329.44;1711344;75;678820;-74
2023/04/15 03:57:36;;;;;;;0.60;0.50;;;;;;;5.40;100.00;96332.78;1702777;75;740379;-68
2023/04/15 04:00:08;;;;;;;0.60;0.60;;;;;;;5.37;100.00;96322.88;1699927;75;939506;-69
2023/04/15 04:02:39;;;;;;;0.60;0.60;;;;;;;5.37;100.00;96328.31;1709114;75;964318;-69
2023/04/15 04:05:10;;;;;;;0.50;0.50;;;;;;;5.30;100.00;96332.16;1702528;75;827455;-70
2023/04/15 04:07:40;;;;;;;0.60;0.60;;;;;;;5.33;100.00;96334.66;1614772;75;8885411;-68
2023/04/15 04:10:11;;;;;;;0.60;0.60;;;;;;;5.39;100.00;96323.13;1677904;75;2850045;-69
2023/04/15 04:12:44;;;;;;;0.90;0.90;;;;;;;5.26;100.00;96337.03;1688391;75;2684802;-72
2023/04/15 04:15:16;;;;;;;2.05;1.70;;;;;;;5.19;100.00;96335.44;1701485;75;884025;-69
2023/04/15 04:17:46;;;;;;;7.90;3.70;;;;;;;5.04;100.00;96340.91;1639496;75;6805869;-75
2023/04/15 04:20:16;;;;;;;2.60;2.30;;;;;;;5.27;100.00;96331.16;1654978;75;4814937;-69
2023/04/15 04:22:47;;;;;;;1.80;1.60;;;;;;;5.31;100.00;96344.50;1696315;75;1975267;-69
2023/04/15 04:25:18;;;;;;;1.60;1.50;;;;;;;5.27;100.00;96336.56;1619792;75;7651290;-68
2023/04/15 04:27:56;;;;;;;1.20;1.10;;;;;;;5.30;100.00;96340.31;1711813;75;675555;-68
2023/04/15 04:30:29;;;;;;;0.80;0.80;;;;;;;5.26;100.00;96348.63;1703439;75;688656;-71
2023/04/15 04:33:00;;;;;;;1.10;1.00;;;;;;;5.24;100.00;96353.03;1711795;75;678794;-68
2023/04/15 04:35:32;;;;;;;0.90;0.90;;;;;;;5.33;100.00;96352.91;1676982;75;2966468;-71
2023/04/15 04:38:02;;;;;;;1.20;0.85;;;;;;;5.31;100.00;96358.06;1711952;75;710481;-69
2023/04/15 04:40:32;;;;;;;0.95;0.90;;;;;;;5.34;100.00;96363.31;1702589;75;749904;-68
2023/04/15 04:43:05;;;;;;;0.80;0.70;;;;;;;5.41;100.00;96372.25;1711753;75;675587;-68
2023/04/15 04:45:35;;;;;;;1.00;0.90;;;;;;;5.41;100.00;96355.97;1702713;75;753159;-68
2023/04/15 04:48:07;;;;;;;1.10;1.00;;;;;;;5.36;100.00;96356.66;1711643;75;679605;-68
2023/04/15 04:50:38;;;;;;;1.30;1.20;;;;;;;5.30;100.00;96359.28;1702688;75;746191;-70
2023/04/15 04:53:08;;;;;;;1.30;1.20;;;;;;;5.30;100.00;96364.72;1712389;75;676762;-70
2023/04/15 04:55:38;;;;;;;1.85;1.30;;;;;;;5.39;100.00;96369.28;1703010;75;740668;-69
2023/04/15 04:58:11;;;;;;;1.20;1.10;;;;;;;5.34;100.00;96373.44;1711965;75;676175;-69
2023/04/15 05:00:42;;;;;;;1.35;1.10;;;;;;;5.31;100.00;96369.66;1702855;75;736065;-74
2023/04/15 05:03:12;;;;;;;1.25;1.15;;;;;;;5.33;100.00;96371.91;1711966;75;699272;-69
2023/04/15 05:05:42;;;;;;;1.20;1.10;;;;;;;5.40;100.00;96371.53;1702619;75;741322;-72
2023/04/15 05:08:13;;;;;;;1.25;1.10;;;;;;;5.43;100.00;96373.28;1699705;75;1685643;-68
2023/04/15 05:10:43;;;;;;;1.85;1.40;;;;;;;5.40;100.00;96368.81;1702415;75;741301;-69
2023/04/15 05:13:16;;;;;;;2.00;1.70;;;;;;;5.33;100.00;96374.63;1711893;75;685071;-68
2023/04/15 05:15:47;;;;;;;1.40;1.30;;;;;;;5.34;100.00;96376.88;1702574;75;747853;-69
2023/04/15 05:18:17;;;;;;;1.30;1.20;;;;;;;5.38;100.00;96381.34;1712306;75;672329;-68
2023/04/15 05:20:48;;;;;;;1.55;1.40;;;;;;;5.40;100.00;96378.91;1702223;75;743416;-69
2023/04/15 05:23:19;;;;;;;1.50;1.40;;;;;;;5.29;100.00;96371.34;1711982;75;672691;-70
2023/04/15 05:25:49;;;;;;;1.70;1.60;;;;;;;5.33;100.00;96374.63;1702578;75;751984;-68
2023/04/15 05:28:22;;;;;;;1.55;1.40;;;;;;;5.38;100.00;96384.81;1711521;75;712708;-68
2023/04/15 05:30:52;;;;;;;1.70;1.35;;;;;;;5.43;100.00;96392.28;1702730;75;753018;-68
2023/04/15 05:33:22;;;;;;;1.55;1.30;;;;;;;5.40;100.00;96395.94;1711689;75;680161;-69
2023/04/15 05:35:53;;;;;;;1.65;1.50;;;;;;;5.47;100.00;96392.09;1702906;75;753183;-70
2023/04/15 05:38:23;;;;;;;2.05;1.70;;;;;;;5.43;100.00;96403.13;1711226;75;681341;-68
2023/04/15 05:40:53;;;;;;;2.45;2.15;;;;;;;5.53;100.00;96409.19;1676543;75;2797582;-68
2023/04/15 05:43:26;;;;;;;5.25;4.30;;;;;;;5.47;100.00;96409.13;1711246;75;689089;-70
2023/04/15 05:45:56;;;;;;;6.50;5.80;;;;;;;5.49;100.00;96411.38;1629821;75;6737076;-70
2023/04/15 05:48:26;;;;;;;4.70;3.40;;;;;;;5.47;100.00;96422.69;1642341;75;6467405;-69
2023/04/15 05:50:57;;;;;;;2.75;2.50;;;;;;;5.47;100.00;96421.94;1702366;75;746899;-68
2023/04/15 05:53:27;;;;;;;2.20;2.00;;;;;;;5.50;100.00;96421.75;1711351;75;679324;-69
2023/04/15 05:55:57;;;;;;;2.45;2.10;;;;;;;5.54;100.00;96427.00;1702550;75;732869;-68
2023/04/15 05:58:31;;;;;;;1.70;1.60;;;;;;;5.58;100.00;96432.22;1697624;75;1838239;-69
2023/04/15 06:01:02;;;;;;;2.80;2.10;;;;;;;5.57;100.00;96425.31;1620578;75;7607077;-70
2023/04/15 06:03:34;;;;;;;2.40;2.20;;;;;;;5.61;100.00;96423.88;1710791;75;713571;-71
2023/04/15 06:06:04;;;;;;;2.05;1.85;;;;;;;5.69;100.00;96422.25;1700826;75;864637;-69
2023/04/15 06:08:34;;;;;;;2.15;1.95;;;;;;;5.67;100.00;96430.13;1709195;75;917283;-68
2023/04/15 06:11:04;;;;;;;4.05;3.40;;;;;;;5.69;100.00;96435.09;1702336;75;759574;-70
2023/04/15 06:13:37;;;;;;;5.50;4.40;;;;;;;5.83;100.00;96447.13;1707951;75;971959;-69
2023/04/15 06:16:09;;;;;;;5.35;4.45;;;;;;;5.90;100.00;96441.31;1702698;75;753656;-71
2023/04/15 06:18:39;;;;;;;6.10;4.90;;;;;;;5.89;100.00;96429.72;1711686;75;672557;-68
2023/04/15 06:21:09;;;;;;;4.05;3.60;;;;;;;5.92;100.00;96434.19;1619245;75;7691885;-69
2023/04/15 06:23:40;;;;;;;4.00;3.20;;;;;;;5.93;100.00;96449.25;1712806;75;675486;-68
2023/04/15 06:26:10;;;;;;;4.20;3.65;;;;;;;5.99;100.00;96449.38;1703467;75;757242;-71
2023/04/15 06:28:43;;;;;;;4.10;3.70;;;;;;;5.98;100.00;96445.13;1712422;75;686602;-69
2023/04/15 06:31:13;;;;;;;3.00;2.70;;;;;;;5.96;100.00;96437.47;1703461;75;757275;-69
2023/04/15 06:33:43;;;;;;;2.95;2.15;;;;;;;6.02;100.00;96447.66;1712493;75;683545;-70
2023/04/15 06:36:14;;;;;;;2.50;2.20;;;;;;;5.96;100.00;96451.06;1703916;75;742861;-68
2023/04/15 06:38:44;;;;;;;3.50;3.20;;;;;;;5.92;100.00;96464.06;1711926;75;684549;-72
2023/04/15 06:41:15;;;;;;;3.15;2.85;;;;;;;6.05;100.00;96463.00;1703113;75;752780;-69
2023/04/15 06:43:48;;;;;;;3.30;2.90;;;;;;;6.15;100.00;96461.66;1699492;75;1777595;-68
2023/04/15 06:46:18;;;;;;;2.55;2.35;;;;;;;6.15;100.00;96467.09;1702844;75;759933;-70
2023/04/15 06:48:49;;;;;;;3.40;2.65;;;;;;;6.31;100.00;96471.25;1686253;75;2883684;-69
2023/04/15 06:51:19;;;;;;;2.95;2.50;;;;;;;6.38;100.00;96471.56;1703023;75;752049;-70
2023/04/15 06:53:49;;;;;;;2.70;2.30;;;;;;;6.40;100.00;96479.28;1700181;75;1692385;-68
2023/04/15 06:56:21;;;;;;;2.95;2.60;;;;;;;6.42;100.00;96476.78;1703263;75;752359;-69
2023/04/15 06:58:53;;;;;;;2.30;2.10;;;;;;;6.39;100.00;96477.75;1712019;75;682985;-70
2023/04/15 07:01:24;;;;;;;2.20;2.00;;;;;;;6.53;100.00;96482.38;1703297;75;752699;-69
2023/04/15 07:03:54;;;;;;;1.50;1.40;;;;;;;6.64;100.00;96495.38;1711964;75;700222;-68
2023/04/15 07:06:24;;;;;;;1.60;1.50;;;;;;;6.61;100.00;96502.50;1703750;75;736160;-70
2023/04/15 07:08:55;;;;;;;2.00;1.80;;;;;;;6.57;100.00;96504.69;1712158;75;679599;-70
2023/04/15 07:11:25;;;;;;;1.60;1.50;;;;;;;6.67;100.00;96507.25;1702942;75;753999;-69
2023/04/15 07:13:58;;;;;;;2.20;1.60;;;;;;;6.68;100.00;96504.03;1709803;75;915234;-72
2023/04/15 07:16:28;;;;;;;1.90;1.70;;;;;;;6.74;100.00;96512.28;1703304;75;741308;-69
2023/04/15 07:18:58;;;;;;;1.40;1.30;;;;;;;6.71;100.00;96505.81;1712057;75;696841;-68
2023/04/15 07:21:29;;;;;;;1.20;1.10;;;;;;;6.85;100.00;96508.94;1703001;75;740497;-69
2023/04/15 07:24:00;;;;;;;1.70;1.10;;;;;;;6.89;100.00;96512.19;1712710;75;689535;-69
2023/04/15 07:26:30;;;;;;;3.50;1.80;;;;;;;6.75;100.00;96519.22;1700338;75;961172;-69
2023/04/15 07:29:03;;;;;;;7.60;3.80;;;;;;;6.30;100.00;96521.38;1712255;75;685864;-70
2023/04/15 07:31:33;;;;;;;5.20;4.00;;;;;;;6.30;100.00;96524.88;1702844;75;759304;-72
2023/04/15 07:34:04;;;;;;;2.95;2.60;;;;;;;6.71;100.00;96535.75;1699689;75;1766884;-69
2023/04/15 07:36:36;;;;;;;2.05;1.85;;;;;;;6.77;100.00;96535.81;1703884;75;749711;-67
2023/04/15 07:39:06;;;;;;;1.70;1.60;;;;;;;6.91;100.00;96534.22;1712825;75;680079;-74
2023/04/15 07:41:37;;;;;;;1.65;1.55;;;;;;;6.91;100.00;96539.66;1536260;75;14746033;-71
2023/04/15 07:44:09;;;;;;;3.30;1.85;;;;;;;7.02;100.00;96540.53;1709131;75;951668;-70
2023/04/15 07:46:40;;;;;;;4.35;3.75;;;;;;;7.09;100.00;96539.34;1642609;75;5822040;-68
2023/04/15 07:49:10;;;;;;;4.75;3.95;;;;;;;7.07;100.00;96541.06;1697851;75;1869419;-70
2023/04/15 07:51:40;;;;;;;3.40;2.80;;;;;;;7.16;100.00;96546.34;1678540;75;2763279;-69
2023/04/15 07:54:10;;;;;;;3.35;2.55;;;;;;;7.03;100.00;96544.00;1710775;75;795706;-68
2023/04/15 07:56:41;;;;;;;5.20;2.10;;;;;;;6.96;100.00;96539.72;1702939;75;738519;-69
2023/04/15 07:59:16;;;;;;;2.55;1.70;;;;;;;7.03;100.00;96535.84;1709102;75;892180;-76
2023/04/15 08:01:46;;;;;;;1.75;1.65;;;;;;;6.93;100.00;96537.22;1679189;75;2709663;-69
2023/04/15 08:04:17;;;;;;;1.50;1.40;;;;;;;7.12;100.00;96535.69;1708718;75;904009;-70
2023/04/15 08:06:49;;;;;;;1.40;1.30;;;;;;;7.05;100.00;96538.84;1689832;75;1778396;-68
2023/04/15 08:09:19;;;;;;;1.60;1.50;;;;;;;6.88;100.00;96527.78;1618434;75;8546164;-70
2023/04/15 08:11:51;;;;;;;1.70;1.60;;;;;;;6.96;100.00;96530.81;1689640;75;1768016;-69
2023/04/15 08:14:24;;;;;;;1.50;1.40;;;;;;;7.02;100.00;96528.88;1711456;75;672134;-73
2023/04/15 08:16:55;;;;;;;2.30;2.10;;;;;;;7.03;100.00;96535.84;1702766;75;743018;-71
2023/04/15 08:19:25;;;;;;;1.70;1.60;;;;;;;7.11;100.00;96536.16;1711381;75;675131;-68
2023/04/15 08:21:55;;;;;;;2.60;1.35;;;;;;;7.22;100.00;96531.56;1701176;75;847459;-72
2023/04/15 08:24:27;;;;;;;1.20;1.10;;;;;;;7.37;100.00;96536.16;1711894;75;674436;-68
2023/04/15 08:26:58;;;;;;;1.05;1.00;;;;;;;7.49;100.00;96553.34;1702255;75;743751;-70
2023/04/15 08:29:31;;;;;;;1.30;1.15;;;;;;;7.48;100.00;96558.06;1711418;75;679408;-67
2023/04/15 08:32:03;;;;;;;2.40;2.20;;;;;;;7.25;100.00;96557.81;1702519;75;732872;-69
2023/04/15 08:34:33;;;;;;;2.90;2.20;;;;;;;7.33;100.00;96562.84;1711268;75;687946;-70
2023/04/15 08:37:03;;;;;;;2.15;1.60;;;;;;;7.43;100.00;96575.84;1702549;75;750024;-69
2023/04/15 08:39:33;;;;;;;1.95;1.40;;;;;;;7.59;100.00;96579.91;1710875;75;679867;-70
2023/04/15 08:42:06;;;;;;;2.30;1.90;;;;;;;7.41;100.00;96581.00;1677751;75;2731888;-69
2023/04/15 08:44:40;;;;;;;1.70;1.60;;;;;;;7.44;100.00;96580.03;1686409;75;2768084;-69
2023/04/15 08:47:20;;;;;;;1.35;1.25;;;;;;;7.68;100.00;96589.91;1702390;75;747459;-69
2023/04/15 08:49:52;;;;;;;1.80;1.15;;;;;;;7.63;100.00;96587.91;1700926;75;882522;-71
2023/04/15 08:52:23;;;;;;;1.70;1.50;;;;;;;7.67;100.00;96582.94;1711144;75;675851;-68
2023/04/15 08:54:55;;;;;;;1.10;1.00;;;;;;;7.77;100.00;96586.25;1665989;75;2840177;-69
2023/04/15 08:57:26;;;;;;;1.50;1.40;;;;;;;7.59;100.00;96585.38;1711557;75;686506;-71
2023/04/15 09:00:00;;;;;;;1.60;1.40;;;;;;;7.61;100.00;96588.38;1703027;75;673159;-70
2023/04/15 09:02:30;;;;;;;1.25;1.00;;;;;;;7.95;100.00;96590.63;1710548;75;727978;-73
2023/04/15 09:05:01;;;;;;;1.20;1.00;;;;;;;7.94;100.00;96595.34;1703056;75;672036;-69
2023/04/15 09:07:31;;;;;;;1.30;1.20;;;;;;;7.83;100.00;96587.06;1711682;75;675078;-70
2023/04/15 09:10:01;;;;;;;2.10;1.20;;;;;;;7.89;100.00;96585.16;1703176;75;679477;-69
2023/04/15 09:12:31;;;;;;;1.30;1.20;;;;;;;7.99;100.00;96596.59;1709347;75;844140;-74
2023/04/15 09:15:05;;;;;;;2.00;1.50;;;;;;;7.71;100.00;96597.13;1703527;75;675183;-70
2023/04/15 09:17:36;;;;;;;1.40;1.30;;;;;;;7.58;100.00;96599.50;1684456;75;2946628;-68
2023/04/15 09:20:15;;;;;;;1.70;1.50;;;;;;;7.86;100.00;96595.03;1619300;67;7762010;-69
2023/04/15 09:22:48;;;;;;;1.30;1.20;;;;;;;7.78;100.00;96593.97;1679010;75;2868141;-74
2023/04/15 09:25:34;;;;;;;2.30;1.45;;;;;;;7.59;100.00;96598.25;1711261;75;676777;-68
2023/04/15 09:28:05;;;;;;;1.30;1.20;;;;;;;7.79;100.00;96602.88;1702803;75;691631;-72
2023/04/15 09:30:38;;;;;;;1.40;1.20;;;;;;;8.05;100.00;96605.56;1710468;75;712996;-72
2023/04/15 09:33:09;;;;;;;2.40;1.10;;;;;;;8.03;100.00;96600.63;1690475;75;1730895;-71
2023/04/15 09:35:41;;;;;;;1.70;1.50;;;;;;;8.02;100.00;96604.56;1710376;75;714604;-69
2023/04/15 09:38:12;;;;;;;1.80;1.40;;;;;;;8.08;100.00;96599.91;1606039;75;8725385;-69
2023/04/15 09:40:44;;;;;;;1.30;1.10;;;;;;;8.18;100.00;96605.16;1709710;75;795189;-69
2023/04/15 09:43:16;;;;;;;7.55;5.90;;;;;;;8.38;100.00;96599.59;1703050;75;733567;-70
2023/04/15 09:45:54;;;;;;;11.50;8.50;;;;;;;8.29;100.00;96597.06;1710943;75;677389;-71
2023/04/15 09:48:26;;;;;;;;;;;;;;;8.30;100.00;96607.50;1702669;75;741657;-68
2023/04/15 09:51:02;;;;;;;3.20;2.60;;;;;;;8.44;100.00;96605.09;1711579;75;678267;-69
2023/04/15 09:53:35;;;;;;;2.40;1.90;;;;;;;8.37;100.00;96603.56;1699421;75;889178;-69
2023/04/15 09:56:06;;;;;;;2.45;1.60;;;;;;;8.28;100.00;96606.47;1711243;75;672883;-71
2023/04/15 09:58:40;;;;;;;3.95;1.30;;;;;;;8.45;100.00;96612.81;1703331;75;739627;-74
2023/04/15 10:01:13;;;;;;;1.70;1.40;;;;;;;8.30;100.00;96609.47;1699803;75;1728016;-74
2023/04/15 10:03:44;;;;;;;2.20;1.80;;;;;;;8.17;100.00;96620.75;1676854;75;2900131;-71
2023/04/15 10:06:15;;;;;;;2.00;1.50;;;;;;;8.30;100.00;96612.94;1710040;75;762015;-70
2023/04/15 10:08:45;;;;;;;1.30;1.15;;;;;;;8.46;100.00;96622.47;1690575;75;1722553;-69
2023/04/15 10:11:16;;;;;;;1.50;1.40;;;;;;;8.38;100.00;96623.41;1711554;75;692674;-72
2023/04/15 10:13:49;;;;;;;1.40;1.30;;;;;;;8.51;100.00;96619.06;1702555;75;747365;-70
2023/04/15 10:16:29;;;;;;;1.45;1.20;;;;;;;8.60;100.00;96626.28;1712197;75;679469;-74
2023/04/15 10:19:00;;;;;;;1.90;1.10;;;;;;;8.50;100.00;96628.47;1676409;75;2901963;-71
2023/04/15 10:21:32;;;;;;;1.95;1.50;;;;;;;8.37;100.00;96616.44;1710563;75;769965;-72
2023/04/15 10:24:03;;;;;;;2.30;1.90;;;;;;;8.20;100.00;96622.53;1700117;75;925675;-70
2023/04/15 10:26:33;;;;;;;3.40;1.75;;;;;;;8.56;100.00;96622.28;1711322;75;682310;-68
2023/04/15 10:29:04;;;;;;;2.40;2.00;;;;;;;8.72;100.00;96621.63;1702628;75;738555;-71
2023/04/15 10:31:41;;;;;;;1.30;1.20;;;;;;;8.74;100.00;96632.81;1711542;75;683718;-74
2023/04/15 10:34:12;;;;;;;1.70;1.40;;;;;;;8.52;100.00;96628.72;1684656;75;1991851;-69
2023/04/15 10:36:43;;;;;;;1.60;1.50;;;;;;;8.56;100.00;96630.47;1710980;75;792250;-72
2023/04/15 10:39:46;;;;;;;1.95;1.60;;;;;;;8.67;100.00;96627.81;1700069;75;867688;-69
2023/04/15 10:42:18;;;;;;;2.30;1.75;;;;;;;8.79;100.00;96629.38;1703000;75;761903;-70
2023/04/15 10:44:53;;;;;;;2.00;1.40;;;;;;;8.93;100.00;96627.69;1711107;75;783282;-70
2023/04/15 10:47:27;;;;;;;2.50;1.90;;;;;;;8.59;100.00;96632.97;1701088;75;930331;-69
2023/04/15 10:50:02;;;;;;;2.40;1.80;;;;;;;8.66;100.00;96626.31;1628475;75;7718555;-71
2023/04/15 10:52:32;;;;;;;1.60;1.40;;;;;;;8.69;100.00;96628.06;1665306;75;3905671;-72
2023/04/15 10:55:15;;;;;;;1.75;1.60;;;;;;;8.59;100.00;96629.50;1710244;75;849301;-72
2023/04/15 10:57:46;;;;;;;2.40;1.75;;;;;;;8.50;100.00;96638.63;1703335;75;740988;-73
2023/04/15 11:00:18;;;;;;;1.70;1.30;;;;;;;8.71;100.00;96633.78;1711956;75;680362;-74
2023/04/15 11:02:57;;;;;;;5.25;3.90;;;;;;;8.72;100.00;96636.03;1702753;75;732396;-74
2023/04/15 11:05:55;;;;;;;4.00;3.00;;;;;;;8.86;100.00;96636.34;1701250;75;853860;-73
2023/04/15 11:08:58;;;;;;;5.10;4.00;;;;;;;8.72;100.00;96638.75;1703404;75;740908;-70
2023/04/15 11:12:07;;;;;;;3.80;2.80;;;;;;;8.80;100.00;96641.03;1703395;75;696845;-72
2023/04/15 11:14:42;;;;;;;3.90;2.40;;;;;;;8.66;100.00;96634.50;1701350;75;857671;-72
2023/04/15 11:17:13;;;;;;;2.20;1.80;;;;;;;8.85;100.00;96641.06;1711707;75;709473;-73
2023/04/15 11:19:48;;;;;;;1.70;1.30;;;;;;;9.00;100.00;96637.41;1703773;75;673589;-69
2023/04/15 11:22:19;;;;;;;2.60;1.70;;;;;;;8.80;100.00;96641.75;1711447;75;676738;-70
2023/04/15 11:24:52;;;;;;;3.25;1.90;;;;;;;8.85;100.00;96645.75;1702338;75;731517;-71
2023/04/15 11:27:26;;;;;;;2.20;1.60;;;;;;;8.86;100.00;96636.34;1710677;75;784807;-70
2023/04/15 11:29:57;;;;;;;3.10;2.10;;;;;;;8.76;100.00;96637.78;1702423;75;753864;-69
2023/04/15 11:32:27;;;;;;;2.70;1.50;;;;;;;8.76;100.00;96638.53;1710837;75;679860;-69
2023/04/15 11:35:00;;;;;;;2.20;1.40;;;;;;;9.01;100.00;96642.38;1620510;75;7568455;-69
2023/04/15 11:37:35;;;;;;;1.50;1.35;;;;;;;9.07;100.00;96645.13;1699323;75;1760608;-71
2023/04/15 11:40:07;;;;;;;2.20;1.50;;;;;;;9.06;100.00;96646.34;1688578;75;1869134;-70
2023/04/15 11:42:37;;;;;;;2.35;1.50;;;;;;;9.06;100.00;96646.34;1707710;75;974443;-71
2023/04/15 11:45:11;;;;;;;1.60;1.40;;;;;;;9.20;100.00;96648.16;1702670;75;747173;-69